Time;durP1;ratioP1;P1;durP2;ratioP2;P2;SDS_P1;SDS_P2;PMS_P1;PMS_P2;Temp;Humidity;BMP_temperature;BMP_pressure;BME280_temperature;BME280_humidity;BME280_pressure;Samples;Min_cycle;Max_cycle;Signal;HPM_P1;HPM_P2
2022/09/29 00:01:22;;;;;;;43.85;28.95;;;;;;;6.50;100.00;67497.41;4996184;28;20727;-84
2022/09/29 00:03:48;;;;;;;46.50;31.50;;;;;;;6.53;100.00;67492.88;5000629;28;20068;-84
2022/09/29 00:06:14;;;;;;;44.63;29.90;;;;;;;;;;5016228;28;20042;-84
2022/09/29 00:08:40;;;;;;;51.53;33.95;;;;;;;6.48;100.00;67495.13;5001268;28;20566;-83
2022/09/29 00:11:10;;;;;;;50.88;32.65;;;;;;;6.50;100.00;67497.41;5002533;28;20045;-83
2022/09/29 00:13:35;;;;;;;43.03;31.05;;;;;;;;;;5004903;28;20073;-82
2022/09/29 00:16:02;;;;;;;49.25;31.30;;;;;;;6.43;100.00;67488.91;5003199;28;20037;-83
2022/09/29 00:18:29;;;;;;;46.72;30.10;;;;;;;6.40;100.00;67485.53;5004914;28;20045;-83
2022/09/29 00:21:08;;;;;;;45.22;31.50;;;;;;;6.38;100.00;67483.25;5006254;28;20101;-83
2022/09/29 00:23:35;;;;;;;52.47;32.45;;;;;;;6.41;100.00;67481.94;4995663;28;20031;-83
2022/09/29 00:26:06;;;;;;;56.25;34.90;;;;;;;;;;5006464;28;20663;-83
2022/09/29 00:28:33;;;;;;;52.47;33.45;;;;;;;6.38;100.00;67478.53;5002682;28;20037;-83
2022/09/29 00:31:00;;;;;;;50.03;31.27;;;;;;;6.40;100.00;67480.81;5011504;28;20039;-84
2022/09/29 00:33:29;;;;;;;46.97;30.85;;;;;;;6.32;100.00;67471.75;5013386;28;20035;-84
2022/09/29 00:35:58;;;;;;;51.33;31.65;;;;;;;;;;5013955;28;20033;-84
2022/09/29 00:38:24;;;;;;;46.58;31.23;;;;;;;6.28;100.00;67472.53;5011319;28;20095;-83
2022/09/29 00:40:49;;;;;;;53.60;33.85;;;;;;;6.38;100.00;67477.97;5008649;28;20052;-84
2022/09/29 00:43:19;;;;;;;53.13;34.67;;;;;;;;;;5013549;28;20099;-83
2022/09/29 00:45:44;;;;;;;58.67;34.20;;;;;;;6.36;100.00;67481.56;5003604;28;20042;-83
2022/09/29 00:48:16;;;;;;;55.17;34.55;;;;;;;6.28;100.00;67475.16;5015583;28;20052;-83
2022/09/29 00:50:51;;;;;;;57.55;35.65;;;;;;;6.29;100.00;67474.22;5020513;28;20049;-84
2022/09/29 00:53:16;;;;;;;58.90;40.10;;;;;;;;;;5011230;28;20543;-83
2022/09/29 00:55:45;;;;;;;69.30;42.17;;;;;;;;;;5019442;28;20069;-83
2022/09/29 00:58:39;;;;;;;67.07;41.53;;;;;;;6.49;100.00;67495.69;5020938;28;20099;-84
2022/09/29 01:01:06;;;;;;;64.93;41.38;;;;;;;6.54;100.00;67496.63;5037421;28;20044;-84
2022/09/29 01:03:37;;;;;;;65.20;44.70;;;;;;;6.57;100.00;67499.47;5007065;28;20042;-82
2022/09/29 01:06:11;;;;;;;71.45;42.67;;;;;;;6.60;100.00;67512.88;4992543;28;20081;-83
2022/09/29 01:08:51;;;;;;;64.72;40.63;;;;;;;6.54;100.00;67496.63;4990982;28;20056;-83
2022/09/29 01:11:17;;;;;;;66.30;43.33;;;;;;;;;;4992051;28;20038;-83
2022/09/29 01:13:42;;;;;;;61.25;39.85;;;;;;;;;;4992866;28;20413;-83
2022/09/29 01:16:07;;;;;;;68.35;44.40;;;;;;;;;;5016566;28;20037;-82
2022/09/29 01:18:33;;;;;;;63.42;43.28;;;;;;;6.55;100.00;67508.34;5022900;28;20037;-82
2022/09/29 01:21:01;;;;;;;64.07;41.90;;;;;;;6.55;100.00;67503.03;5022782;28;20044;-81
2022/09/29 01:23:43;;;;;;;67.88;46.17;;;;;;;;;;5007191;28;20424;-82
2022/09/29 01:26:21;;;;;;;63.70;40.92;;;;;;;;;;5016149;28;20042;-82
2022/09/29 01:29:06;;;;;;;60.00;40.65;;;;;;;;;;5004566;28;20042;-80
2022/09/29 01:31:55;;;;;;;57.40;38.70;;;;;;;6.41;100.00;67486.66;5007453;28;20116;-81
2022/09/29 01:34:37;;;;;;;62.50;39.75;;;;;;;6.38;100.00;67483.81;5038667;28;20060;-81
2022/09/29 01:37:20;;;;;;;65.38;39.65;;;;;;;6.35;100.00;67479.88;5030648;28;20525;-81
2022/09/29 01:40:18;;;;;;;58.17;38.03;;;;;;;6.27;100.00;67471.97;5026738;28;20105;-82
2022/09/29 01:43:02;;;;;;;62.80;38.38;;;;;;;;;;5004334;28;20085;-81
2022/09/29 01:45:38;;;;;;;59.25;37.28;;;;;;;6.15;100.00;67453.09;5006983;28;20124;-82
2022/09/29 01:48:06;;;;;;;59.50;38.25;;;;;;;;;;4999082;28;20046;-82
2022/09/29 01:50:45;;;;;;;53.53;36.55;;;;;;;6.17;100.00;67454.81;5006186;28;20597;-81
2022/09/29 01:53:16;;;;;;;53.33;36.17;;;;;;;6.12;100.00;67449.16;5037087;28;20054;-82
2022/09/29 01:55:46;;;;;;;57.28;37.08;;;;;;;6.06;100.00;67448.78;5008944;28;20144;-81
2022/09/29 01:58:16;;;;;;;58.88;40.22;;;;;;;;;;5001497;28;20144;-82
2022/09/29 02:00:45;;;;;;;55.47;37.70;;;;;;;;;;5004396;28;20252;-81
2022/09/29 02:03:33;;;;;;;51.58;35.63;;;;;;;;;;5014982;28;20045;-82
2022/09/29 02:06:02;;;;;;;59.30;38.97;;;;;;;6.15;100.00;67449.88;4999665;28;20657;-82
2022/09/29 02:08:37;;;;;;;59.65;40.67;;;;;;;6.19;100.00;67455.00;5050498;22;20020;-79
2022/09/29 02:11:05;;;;;;;65.38;40.47;;;;;;;6.21;100.00;67465.16;5059784;28;20102;-80
2022/09/29 02:13:37;;;;;;;63.33;41.83;;;;;;;6.26;100.00;67470.25;5056972;28;20424;-80
2022/09/29 02:16:04;;;;;;;56.05;38.70;;;;;;;6.27;100.00;67466.69;5057348;28;20140;-80
2022/09/29 02:18:32;;;;;;;58.00;38.33;;;;;;;;;;5057726;28;20327;-81
2022/09/29 02:20:58;;;;;;;59.67;38.80;;;;;;;6.20;100.00;67463.47;5052974;28;20913;-79
2022/09/29 02:23:23;;;;;;;54.55;35.50;;;;;;;6.17;100.00;67455.38;5069001;28;20044;-80
2022/09/29 02:25:50;;;;;;;61.63;40.70;;;;;;;6.18;100.00;67461.78;5064438;28;20044;-80
2022/09/29 02:28:16;;;;;;;61.67;40.28;;;;;;;6.20;100.00;67458.19;5050797;28;20717;-80
2022/09/29 02:30:42;;;;;;;57.92;36.88;;;;;;;6.18;100.00;67453.28;5050587;28;20041;-80
2022/09/29 02:33:24;;;;;;;61.53;39.20;;;;;;;6.18;100.00;67461.22;5049846;28;21228;-80
2022/09/29 02:36:00;;;;;;;60.13;40.63;;;;;;;6.18;100.00;67455.94;5054249;28;20060;-80
2022/09/29 02:38:50;;;;;;;57.88;38.72;;;;;;;6.08;100.00;67451.03;5050191;28;20175;-80
2022/09/29 02:41:15;;;;;;;61.00;38.85;;;;;;;;;;5039751;28;20160;-80
2022/09/29 02:44:23;;;;;;;64.93;39.13;;;;;;;6.01;100.00;67442.56;5046989;28;20131;-80
2022/09/29 02:47:03;;;;;;;59.88;38.35;;;;;;;;;;5053751;28;21044;-79
2022/09/29 02:49:31;;;;;;;54.00;37.22;;;;;;;;;;5052068;28;20079;-79
2022/09/29 02:52:19;;;;;;;59.08;36.08;;;;;;;5.75;100.00;67413.72;5051700;28;20474;-80
2022/09/29 02:55:10;;;;;;;54.25;36.63;;;;;;;5.68;100.00;67406.38;5028257;28;20650;-80
2022/09/29 02:58:12;;;;;;;52.08;34.47;;;;;;;5.61;100.00;67393.75;5053509;28;20068;-80
2022/09/29 03:00:37;;;;;;;54.28;36.42;;;;;;;;;;5052532;28;20052;-80
2022/09/29 03:03:03;;;;;;;55.50;35.78;;;;;;;5.54;100.00;67391.13;5059995;28;20041;-80
2022/09/29 03:05:28;;;;;;;54.65;33.45;;;;;;;5.48;100.00;67379.06;5053798;28;20044;-80
2022/09/29 03:07:53;;;;;;;56.85;36.70;;;;;;;5.45;100.00;67380.94;5072394;28;20045;-80
2022/09/29 03:10:19;;;;;;;55.72;34.95;;;;;;;5.44;100.00;67385.09;5056530;28;20131;-80
2022/09/29 03:12:46;;;;;;;62.30;40.70;;;;;;;5.51;100.00;67387.16;5055922;28;20041;-80
2022/09/29 03:15:12;;;;;;;58.40;40.30;;;;;;;;;;5053189;28;20044;-80
2022/09/29 03:17:37;;;;;;;57.67;38.28;;;;;;;;;;5048974;28;20119;-81
2022/09/29 03:20:04;;;;;;;55.05;37.33;;;;;;;5.39;100.00;67374.72;5057236;28;20483;-81
2022/09/29 03:22:29;;;;;;;49.80;33.25;;;;;;;;;;5058973;28;20041;-80
2022/09/29 03:24:54;;;;;;;43.42;32.08;;;;;;;;;;5060038;28;20036;-80
2022/09/29 03:27:19;;;;;;;49.85;34.72;;;;;;;;;;5060811;28;20040;-80
2022/09/29 03:29:44;;;;;;;52.17;34.60;;;;;;;;;;5056802;28;20052;-79
2022/09/29 03:32:10;;;;;;;46.53;33.75;;;;;;;5.10;100.00;67342.53;5060050;28;20576;-79
2022/09/29 03:34:35;;;;;;;45.58;33.00;;;;;;;5.08;100.00;67340.28;5071788;28;20462;-80
2022/09/29 03:37:01;;;;;;;45.22;32.83;;;;;;;;;;5058319;28;20086;-79
2022/09/29 03:39:27;;;;;;;47.35;33.97;;;;;;;5.01;100.00;67331.81;5057179;28;20053;-79
2022/09/29 03:41:53;;;;;;;51.40;31.17;;;;;;;5.02;100.00;67332.94;5055715;28;20049;-79
2022/09/29 03:44:18;;;;;;;54.17;35.13;;;;;;;;;;5056623;28;20052;-79
2022/09/29 03:46:45;;;;;;;50.85;33.25;;;;;;;4.98;100.00;67324.28;5054100;28;20511;-80
2022/09/29 03:49:10;;;;;;;47.42;31.83;;;;;;;;;;5060537;28;20094;-80
2022/09/29 03:51:36;;;;;;;49.88;33.22;;;;;;;;;;5056786;28;20044;-80
2022/09/29 03:54:01;;;;;;;48.65;33.30;;;;;;;4.94;100.00;67325.03;5054957;28;20052;-79
2022/09/29 03:56:27;;;;;;;43.58;30.42;;;;;;;4.94;100.00;67324.47;5050902;28;20091;-81
2022/09/29 03:58:52;;;;;;;43.78;30.23;;;;;;;4.89;100.00;67324.09;5054050;28;20136;-80
2022/09/29 04:01:17;;;;;;;43.95;30.92;;;;;;;4.88;100.00;67317.69;5055598;28;20032;-80
2022/09/29 04:03:42;;;;;;;42.50;28.50;;;;;;;;;;5051306;28;20103;-80
2022/09/29 04:06:08;;;;;;;44.30;31.60;;;;;;;4.83;100.00;67312.59;5051506;28;20569;-81
2022/09/29 04:08:36;;;;;;;43.47;31.65;;;;;;;4.82;100.00;67311.47;5056543;28;20386;-82
2022/09/29 04:11:02;;;;;;;42.10;29.63;;;;;;;4.75;100.00;67303.59;5062005;28;20230;-81
2022/09/29 04:13:28;;;;;;;41.78;29.58;;;;;;;4.77;100.00;67305.25;5065878;28;20043;-82
2022/09/29 04:16:04;;;;;;;52.38;33.05;;;;;;;4.75;100.00;67304.13;5068813;28;20040;-82
2022/09/29 04:18:30;;;;;;;51.55;35.22;;;;;;;;;;5065763;28;20469;-83
2022/09/29 04:20:59;;;;;;;44.97;30.88;;;;;;;4.72;100.00;67300.75;5069631;28;20056;-81
2022/09/29 04:23:24;;;;;;;48.60;33.60;;;;;;;;;;5065718;28;20581;-82
2022/09/29 04:25:49;;;;;;;49.25;31.75;;;;;;;;;;5041038;28;20040;-83
2022/09/29 04:28:15;;;;;;;54.60;33.67;;;;;;;4.63;100.00;67295.88;5060584;28;20044;-81
2022/09/29 04:30:40;;;;;;;51.47;34.92;;;;;;;4.61;100.00;67287.78;5062366;28;20045;-81
2022/09/29 04:33:05;;;;;;;54.92;36.97;;;;;;;4.64;100.00;67291.72;5078762;28;20526;-81
2022/09/29 04:35:31;;;;;;;55.65;37.08;;;;;;;4.82;100.00;67310.91;5057121;28;20101;-81
2022/09/29 04:37:57;;;;;;;58.70;37.50;;;;;;;4.89;100.00;67318.81;5055893;28;20045;-80
2022/09/29 04:40:23;;;;;;;51.70;35.25;;;;;;;4.88;100.00;67320.88;5049004;28;20125;-81
2022/09/29 04:42:48;;;;;;;63.70;42.22;;;;;;;5.01;100.00;67335.00;5050883;28;20504;-80
2022/09/29 04:45:14;;;;;;;61.95;41.35;;;;;;;5.10;100.00;67341.97;5053116;28;20071;-81
2022/09/29 04:47:39;;;;;;;63.55;40.03;;;;;;;;;;5055097;28;20100;-80
2022/09/29 04:50:05;;;;;;;61.42;38.38;;;;;;;5.09;100.00;67340.84;5053470;28;20051;-80
2022/09/29 04:52:30;;;;;;;57.83;39.47;;;;;;;5.12;100.00;67347.44;5054298;28;20045;-81
2022/09/29 04:54:56;;;;;;;69.38;37.83;;;;;;;;;;5052099;28;20492;-79
2022/09/29 04:57:21;;;;;;;64.28;40.22;;;;;;;5.23;100.00;67356.09;5050854;28;21273;-81
2022/09/29 04:59:47;;;;;;;67.43;38.88;;;;;;;;;;5049657;28;20500;-80
2022/09/29 05:02:13;;;;;;;64.05;41.40;;;;;;;;;;5053868;28;20069;-82
2022/09/29 05:04:38;;;;;;;60.90;37.58;;;;;;;;;;5050959;28;20045;-80
2022/09/29 05:07:03;;;;;;;62.58;39.80;;;;;;;5.28;100.00;67361.75;5050460;28;20407;-80
2022/09/29 05:09:28;;;;;;;68.30;45.55;;;;;;;;;;5049427;28;20033;-79
2022/09/29 05:11:57;;;;;;;59.75;37.95;;;;;;;;;;5051938;28;20106;-81
2022/09/29 05:14:22;;;;;;;60.27;37.57;;;;;;;5.12;100.00;67338.94;5062081;28;20060;-82
2022/09/29 05:16:47;;;;;;;59.83;37.42;;;;;;;;;;5063327;28;20374;-83
2022/09/29 05:19:13;;;;;;;63.65;40.53;;;;;;;5.01;100.00;67323.91;5058158;28;20151;-81
2022/09/29 05:21:38;;;;;;;62.28;36.42;;;;;;;4.92;100.00;67322.19;5057039;28;20063;-82
2022/09/29 05:24:03;;;;;;;57.78;35.85;;;;;;;4.89;100.00;67318.81;5059838;28;20041;-81
2022/09/29 05:26:29;;;;;;;59.33;36.85;;;;;;;4.84;100.00;67307.91;5057656;28;20098;-81
2022/09/29 05:28:54;;;;;;;53.58;33.10;;;;;;;;;;5062992;28;20060;-82
2022/09/29 05:31:20;;;;;;;55.00;34.90;;;;;;;4.74;100.00;67307.72;5055768;28;20048;-82
2022/09/29 05:33:45;;;;;;;59.42;37.33;;;;;;;4.72;100.00;67300.75;5063577;28;20064;-82
2022/09/29 05:36:11;;;;;;;57.17;36.90;;;;;;;4.70;100.00;67298.50;5062192;28;20054;-82
2022/09/29 05:38:37;;;;;;;60.83;36.88;;;;;;;4.70;100.00;67298.50;5059305;28;20571;-82
2022/09/29 05:41:04;;;;;;;57.30;35.58;;;;;;;4.65;100.00;67295.47;5065244;28;20539;-82
2022/09/29 05:43:30;;;;;;;51.92;35.53;;;;;;;4.61;100.00;67288.34;5067910;28;20058;-82
2022/09/29 05:46:00;;;;;;;52.22;34.20;;;;;;;4.59;100.00;67286.06;5073347;28;20048;-83
2022/09/29 05:48:28;;;;;;;52.92;34.92;;;;;;;;;;5069040;28;20151;-80
2022/09/29 05:50:53;;;;;;;49.30;32.42;;;;;;;4.59;100.00;67286.06;5062813;28;20036;-82
2022/09/29 05:53:18;;;;;;;50.72;35.92;;;;;;;;;;5054805;28;20665;-80
2022/09/29 05:55:44;;;;;;;56.53;37.30;;;;;;;4.56;100.00;67276.84;5056163;28;20214;-80
2022/09/29 05:58:09;;;;;;;57.20;37.75;;;;;;;4.57;100.00;67286.44;5057415;28;20044;-80
2022/09/29 06:00:35;;;;;;;59.00;37.97;;;;;;;4.60;100.00;67286.63;5059142;28;20037;-81
2022/09/29 06:03:00;;;;;;;54.65;34.08;;;;;;;;;;5056195;28;20595;-80
2022/09/29 06:05:25;;;;;;;52.60;34.63;;;;;;;;;;5058964;28;20041;-81
2022/09/29 06:07:51;;;;;;;57.42;36.83;;;;;;;4.58;100.00;67279.69;5055729;28;20055;-80
2022/09/29 06:10:17;;;;;;;56.42;34.83;;;;;;;;;;5055526;28;20048;-82
2022/09/29 06:12:43;;;;;;;56.55;36.75;;;;;;;4.65;100.00;67292.28;5059950;28;20684;-79
2022/09/29 06:15:10;;;;;;;56.67;35.85;;;;;;;4.67;100.00;67295.09;5059891;28;20036;-81
2022/09/29 06:17:35;;;;;;;54.97;35.90;;;;;;;;;;5058278;28;20048;-82
2022/09/29 06:20:00;;;;;;;57.10;39.17;;;;;;;;;;5013069;28;20038;-82
2022/09/29 06:22:26;;;;;;;58.45;38.78;;;;;;;4.78;100.00;67301.13;4997914;28;20128;-79
2022/09/29 06:24:52;;;;;;;69.20;43.50;;;;;;;;;;4998955;28;20039;-80
2022/09/29 06:27:17;;;;;;;61.30;40.58;;;;;;;;;;5000182;28;20421;-79
2022/09/29 06:29:42;;;;;;;63.78;40.70;;;;;;;4.90;100.00;67315.25;4999769;28;20100;-79
2022/09/29 06:32:07;;;;;;;60.33;39.33;;;;;;;4.98;100.00;67329.56;4999007;28;20042;-79
2022/09/29 06:34:33;;;;;;;61.13;39.72;;;;;;;5.04;100.00;67335.19;5000855;28;20516;-82
2022/09/29 06:39:42;;;;;;;70.30;45.45;;;;;;;;;;5002284;28;20084;-81
2022/09/29 06:42:07;;;;;;;65.90;42.55;;;;;;;5.27;100.00;67355.34;4998667;28;20102;-82
2022/09/29 06:44:33;;;;;;;65.93;41.55;;;;;;;5.33;100.00;67367.41;5003748;28;20120;-80
2022/09/29 06:46:58;;;;;;;67.25;41.85;;;;;;;;;;5005829;28;20042;-81
2022/09/29 06:49:24;;;;;;;72.47;44.25;;;;;;;5.49;100.00;67384.91;4989800;28;20038;-83
2022/09/29 06:51:49;;;;;;;65.38;43.97;;;;;;;;;;5025750;28;20037;-81
2022/09/29 06:54:17;;;;;;;72.43;43.75;;;;;;;5.63;100.00;67401.28;5083351;28;20443;-81
2022/09/29 06:56:45;;;;;;;73.72;47.53;;;;;;;;;;5069760;28;20052;-83
2022/09/29 06:59:11;;;;;;;77.50;47.13;;;;;;;5.90;100.00;67430.69;5085532;28;20496;-84
2022/09/29 07:01:36;;;;;;;75.20;46.88;;;;;;;;;;5069790;28;20178;-80
2022/09/29 07:04:01;;;;;;;76.95;46.55;;;;;;;;;;5067139;28;20049;-82
2022/09/29 07:06:29;;;;;;;76.90;41.42;;;;;;;;;;5054849;28;20519;-82
2022/09/29 07:08:56;;;;;;;69.27;42.93;;;;;;;6.27;100.00;67471.97;5063594;28;20082;-82
2022/09/29 07:11:22;;;;;;;76.38;47.47;;;;;;;6.37;100.00;67482.69;5059906;28;20292;-81
2022/09/29 07:13:50;;;;;;;72.25;46.22;;;;;;;6.48;100.00;67489.28;5064271;28;20043;-82
2022/09/29 07:16:16;;;;;;;72.70;46.33;;;;;;;6.57;100.00;67504.19;5065594;28;20032;-82
2022/09/29 07:18:42;;;;;;;68.10;46.58;;;;;;;6.64;100.00;67512.66;5065180;28;20106;-81
2022/09/29 07:21:08;;;;;;;70.75;46.13;;;;;;;;;;5062708;28;20124;-82
2022/09/29 07:23:35;;;;;;;67.15;39.10;;;;;;;6.74;100.00;67515.47;5067537;28;20044;-80
2022/09/29 07:26:01;;;;;;;72.15;43.40;;;;;;;6.82;100.00;67523.94;5058340;28;20064;-82
2022/09/29 07:28:29;;;;;;;67.35;42.72;;;;;;;;;;5062365;28;20048;-81
2022/09/29 07:31:09;;;;;;;70.80;47.17;;;;;;;6.94;100.00;67537.53;5075628;28;20049;-82
2022/09/29 07:33:34;;;;;;;68.90;44.53;;;;;;;6.99;100.00;67551.13;5063199;28;20124;-79
2022/09/29 07:36:00;;;;;;;71.18;46.13;;;;;;;7.08;100.00;67560.72;5060388;28;20694;-80
2022/09/29 07:38:27;;;;;;;68.03;46.92;;;;;;;7.11;100.00;67558.84;5068130;28;20051;-81
2022/09/29 07:40:52;;;;;;;68.32;43.40;;;;;;;7.20;100.00;67569.03;5069336;28;20492;-83
2022/09/29 07:43:17;;;;;;;64.97;46.15;;;;;;;;;;5064723;28;20044;-81
2022/09/29 07:45:50;;;;;;;66.53;40.78;;;;;;;7.37;100.00;67588.28;5053279;28;20051;-81
2022/09/29 07:48:16;;;;;;;64.10;43.08;;;;;;;;;;5065729;28;20064;-81
2022/09/29 07:50:41;;;;;;;65.43;42.78;;;;;;;;;;5065222;28;20732;-80
2022/09/29 07:53:06;;;;;;;69.10;46.22;;;;;;;;;;5062173;28;20048;-81
2022/09/29 07:55:32;;;;;;;60.53;44.10;;;;;;;7.68;100.00;67627.50;5067177;28;20178;-81
2022/09/29 07:57:57;;;;;;;62.45;42.58;;;;;;;;;;5063224;28;20064;-83
2022/09/29 08:00:22;;;;;;;63.80;39.15;;;;;;;7.84;100.00;67645.63;5066309;28;20041;-82
2022/09/29 08:02:48;;;;;;;68.03;46.25;;;;;;;7.96;100.00;67652.78;5064086;28;20061;-82
2022/09/29 08:05:13;;;;;;;58.92;43.30;;;;;;;8.06;100.00;67664.13;5054715;28;20086;-81
2022/09/29 08:07:38;;;;;;;61.97;39.63;;;;;;;;;;5057480;28;20045;-84
2022/09/29 08:10:04;;;;;;;58.47;40.40;;;;;;;8.17;100.00;67676.59;5069866;22;20048;-86
2022/09/29 08:12:30;;;;;;;59.92;38.00;;;;;;;8.18;100.00;67677.69;5061539;28;20054;-88
2022/09/29 08:14:55;;;;;;;58.88;39.85;;;;;;;;;;5063725;28;20041;-86
2022/09/29 08:17:20;;;;;;;57.30;40.37;;;;;;;8.25;100.00;67685.63;5079012;28;20095;-87
2022/09/29 08:19:46;;;;;;;57.47;38.35;;;;;;;8.34;100.00;67695.84;5060991;28;20297;-85
2022/09/29 08:22:11;;;;;;;57.97;38.63;;;;;;;;;;5061445;28;20051;-87
2022/09/29 08:24:39;;;;;;;50.77;35.57;;;;;;;;;;5059977;28;20040;-87
2022/09/29 08:27:05;;;;;;;51.45;39.03;;;;;;;;;;5051038;28;20276;-86
2022/09/29 08:29:31;;;;;;;48.47;36.03;;;;;;;8.64;100.00;67733.44;5037829;28;21134;-87
2022/09/29 08:31:57;;;;;;;46.78;36.15;;;;;;;;;;5057919;28;20095;-92
2022/09/29 08:34:22;;;;;;;49.00;33.57;;;;;;;8.72;100.00;67742.50;5060068;28;20115;-87
2022/09/29 08:36:47;;;;;;;46.22;33.17;;;;;;;8.77;100.00;67743.41;5058966;28;20350;-86
2022/09/29 08:39:14;;;;;;;46.30;34.50;;;;;;;;;;5058435;28;20052;-87
2022/09/29 08:41:48;;;;;;;45.55;34.35;;;;;;;9.00;100.00;67766.25;5055552;28;20189;-87
2022/09/29 08:44:24;;;;;;;43.25;32.15;;;;;;;9.06;100.00;67775.13;5074601;28;20041;-86
2022/09/29 08:47:02;;;;;;;37.33;28.83;;;;;;;;;;5054987;28;20110;-86
2022/09/29 08:49:40;;;;;;;39.92;30.25;;;;;;;9.09;100.00;67775.31;5066821;28;20166;-87
2022/09/29 08:52:18;;;;;;;36.20;30.27;;;;;;;9.15;100.00;67784.78;5054322;28;20041;-88
2022/09/29 08:54:45;;;;;;;41.28;29.38;;;;;;;;;;5057507;28;20041;-87
2022/09/29 08:57:17;;;;;;;38.97;29.05;;;;;;;;;;5073095;28;20044;-89
2022/09/29 08:59:49;;;;;;;38.60;30.83;;;;;;;9.40;100.00;67812.56;5072238;28;20045;-86
2022/09/29 09:02:33;;;;;;;36.45;29.42;;;;;;;9.47;100.00;67818.41;5065016;28;20056;-87
2022/09/29 09:05:08;;;;;;;32.95;26.27;;;;;;;9.40;100.00;67812.56;5062123;28;20124;-87
2022/09/29 09:07:52;;;;;;;33.58;27.45;;;;;;;9.63;100.00;67838.63;5054853;28;20433;-87
2022/09/29 09:10:17;;;;;;;34.40;25.05;;;;;;;9.86;100.00;67863.56;5053808;28;20045;-87
2022/09/29 09:12:59;;;;;;;30.83;23.88;;;;;;;;;;5058417;28;20052;-87
2022/09/29 09:15:28;;;;;;;25.90;19.45;;;;;;;;;;5054257;28;20064;-86
2022/09/29 09:18:25;;;;;;;24.13;21.00;;;;;;;9.88;100.00;67863.19;5055219;28;20040;-86
2022/09/29 09:21:00;;;;;;;25.85;20.77;;;;;;;;;;5044070;28;20036;-86
2022/09/29 09:23:47;;;;;;;25.25;18.63;;;;;;;10.03;100.00;67882.28;5057406;28;20048;-85
2022/09/29 09:26:13;;;;;;;24.80;19.92;;;;;;;10.12;100.00;67892.50;5055203;28;20045;-86
2022/09/29 09:28:42;;;;;;;21.52;18.40;;;;;;;10.31;100.00;67913.50;5059419;28;20245;-87
2022/09/29 09:31:13;;;;;;;;;;;;;;;10.31;100.00;67913.50;5058609;28;20044;-86
2022/09/29 09:33:46;;;;;;;21.55;17.17;;;;;;;;;;5069423;28;21621;-86
2022/09/29 09:36:32;;;;;;;20.88;15.52;;;;;;;10.35;100.00;67918.59;5054199;28;20064;-88
2022/09/29 09:39:01;;;;;;;23.63;17.02;;;;;;;;;;5070211;28;20514;-87
2022/09/29 09:41:29;;;;;;;24.58;15.45;;;;;;;10.60;100.00;67946.41;5055930;28;20406;-87
2022/09/29 09:44:07;;;;;;;18.00;15.05;;;;;;;10.74;100.00;67961.16;5057243;28;20558;-86
2022/09/29 09:46:42;;;;;;;18.23;15.02;;;;;;;10.84;100.00;67969.84;5057173;28;20521;-87
2022/09/29 09:49:35;;;;;;;18.63;15.27;;;;;;;10.92;99.33;67986.91;5055602;28;20320;-86
2022/09/29 09:52:03;;;;;;;15.25;13.10;;;;;;;;;;5071788;28;20453;-86
2022/09/29 09:54:36;;;;;;;14.63;11.52;;;;;;;;;;5055893;28;20041;-87
2022/09/29 09:57:36;;;;;;;13.75;11.32;;;;;;;10.98;96.62;67985.72;5071164;28;20055;-87
2022/09/29 10:00:08;;;;;;;12.98;10.40;;;;;;;11.14;96.93;68005.44;5070784;28;20041;-86
2022/09/29 10:02:34;;;;;;;14.13;9.82;;;;;;;11.39;97.06;68033.81;5059154;28;20098;-88
2022/09/29 10:04:59;;;;;;;15.18;9.77;;;;;;;11.27;95.54;68020.75;5055875;28;20110;-86
2022/09/29 10:07:29;;;;;;;15.27;10.15;;;;;;;11.25;96.74;68023.81;5059524;28;20049;-86
2022/09/29 10:09:56;;;;;;;12.85;9.60;;;;;;;11.39;95.60;68033.25;5055050;28;20045;-87
2022/09/29 10:12:23;;;;;;;14.18;10.45;;;;;;;11.65;95.37;68059.53;5055275;28;20679;-87
2022/09/29 10:14:56;;;;;;;14.13;10.77;;;;;;;11.58;95.05;68054.25;5054440;28;20053;-87
2022/09/29 10:17:26;;;;;;;14.23;11.82;;;;;;;11.63;94.28;68057.84;5046588;28;20037;-86
2022/09/29 10:19:51;;;;;;;14.43;10.70;;;;;;;;;;5062642;28;20052;-87
2022/09/29 10:22:18;;;;;;;13.37;11.73;;;;;;;11.63;96.18;68060.50;5066031;28;20046;-88
2022/09/29 10:24:44;;;;;;;14.40;11.68;;;;;;;11.67;95.12;68065.03;5047979;28;20280;-87
2022/09/29 10:27:10;;;;;;;13.52;10.60;;;;;;;11.88;95.12;68088.38;5060654;28;20126;-87
2022/09/29 10:29:40;;;;;;;15.35;11.82;;;;;;;11.90;95.44;68085.28;5077979;28;20036;-87
2022/09/29 10:32:20;;;;;;;15.07;12.02;;;;;;;12.10;98.21;68112.22;5064300;28;20036;-86
2022/09/29 10:34:50;;;;;;;12.88;11.00;;;;;;;12.12;94.74;68119.81;5049737;28;20070;-86
2022/09/29 10:37:23;;;;;;;12.60;8.30;;;;;;;12.05;93.67;68106.53;5063101;28;20170;-87
2022/09/29 10:39:48;;;;;;;13.13;11.68;;;;;;;;;;5059558;28;20547;-86
2022/09/29 10:42:24;;;;;;;15.10;11.18;;;;;;;12.15;94.41;68117.91;5058812;28;20171;-86
2022/09/29 10:45:16;;;;;;;11.85;10.63;;;;;;;12.08;92.90;68107.81;5060726;28;20040;-86
2022/09/29 10:47:44;;;;;;;13.23;11.80;;;;;;;;;;5063201;28;20048;-87
2022/09/29 10:50:20;;;;;;;15.82;11.70;;;;;;;12.29;96.01;68133.81;5005526;28;20570;-86
2022/09/29 10:53:02;;;;;;;12.65;10.15;;;;;;;12.42;92.22;68148.56;5017164;28;20058;-86
2022/09/29 10:55:32;;;;;;;14.90;10.52;;;;;;;12.52;93.72;68156.13;5019427;28;20040;-86
2022/09/29 10:58:02;;;;;;;11.55;10.35;;;;;;;12.78;90.85;68188.34;5023725;28;20050;-86
2022/09/29 11:00:33;;;;;;;12.30;10.15;;;;;;;12.76;91.50;68185.50;5003600;28;20060;-86
2022/09/29 11:03:19;;;;;;;11.13;9.30;;;;;;;12.67;89.39;68175.28;5007062;28;20034;-87
2022/09/29 11:05:53;;;;;;;9.15;7.13;;;;;;;12.85;88.10;68196.31;5025778;28;20029;-87
2022/09/29 11:08:24;;;;;;;13.30;8.80;;;;;;;13.16;90.35;68229.84;5004878;28;20038;-88
2022/09/29 11:11:01;;;;;;;10.77;7.93;;;;;;;;;;5005996;28;20042;-86
2022/09/29 11:13:48;;;;;;;10.20;5.95;;;;;;;13.14;86.58;68225.47;5020379;28;20056;-86
2022/09/29 11:16:16;;;;;;;7.30;5.57;;;;;;;13.23;85.82;68233.03;5003762;28;20309;-86
2022/09/29 11:18:49;;;;;;;9.75;6.35;;;;;;;13.06;85.05;68216.38;5022802;28;20037;-86
2022/09/29 11:21:43;;;;;;;6.80;5.25;;;;;;;12.79;83.51;68186.25;5042181;28;20040;-87
2022/09/29 11:24:17;;;;;;;7.13;5.43;;;;;;;12.79;85.06;68184.16;5055963;28;20068;-88
2022/09/29 11:26:53;;;;;;;5.32;4.38;;;;;;;12.75;84.94;68182.28;5063053;28;20045;-87
2022/09/29 11:29:59;;;;;;;4.68;3.60;;;;;;;12.71;84.28;68179.81;5056049;28;20044;-87
2022/09/29 11:33:04;;;;;;;4.80;3.30;;;;;;;13.03;84.95;68210.28;5031950;28;20098;-87
2022/09/29 11:35:29;;;;;;;5.95;5.18;;;;;;;;;;5004435;28;20049;-87
2022/09/29 11:38:05;;;;;;;6.73;5.17;;;;;;;13.52;83.99;68270.81;5015189;28;20037;-87
2022/09/29 11:41:07;;;;;;;7.20;5.07;;;;;;;13.57;85.59;68275.38;5043128;28;20899;-87
2022/09/29 11:43:44;;;;;;;7.80;5.60;;;;;;;;;;5055483;28;20607;-87
2022/09/29 11:46:44;;;;;;;6.88;5.22;;;;;;;13.26;83.63;68238.56;5054667;28;20052;-87
2022/09/29 11:49:37;;;;;;;6.90;4.95;;;;;;;13.01;83.19;68210.69;5058274;28;20102;-87
2022/09/29 11:52:14;;;;;;;8.68;5.43;;;;;;;13.05;84.50;68215.81;5059449;28;20032;-89
2022/09/29 11:54:50;;;;;;;7.88;5.18;;;;;;;13.08;84.49;68218.66;5060701;28;20530;-88
2022/09/29 11:57:36;;;;;;;7.43;6.15;;;;;;;;;;5053759;28;20135;-88
2022/09/29 12:00:10;;;;;;;11.95;7.68;;;;;;;13.18;86.20;68227.34;5039721;28;20040;-87
2022/09/29 12:02:39;;;;;;;10.25;8.05;;;;;;;;;;5049672;28;20079;-88
2022/09/29 12:05:22;;;;;;;9.45;6.30;;;;;;;13.80;83.29;68298.84;5060532;28;20060;-87
2022/09/29 12:07:47;;;;;;;6.93;5.90;;;;;;;13.83;84.46;68301.69;5059116;28;20455;-87
2022/09/29 12:10:37;;;;;;;6.45;5.75;;;;;;;13.97;83.77;68315.50;5073568;28;20041;-86
2022/09/29 12:13:24;;;;;;;7.38;6.68;;;;;;;13.94;81.06;68314.78;5058433;28;20792;-87
2022/09/29 12:16:06;;;;;;;9.20;6.68;;;;;;;13.88;81.61;68307.97;5053296;28;20044;-87
2022/09/29 12:18:49;;;;;;;7.88;7.05;;;;;;;13.94;82.94;68314.22;5037601;28;20045;-87
2022/09/29 12:21:28;;;;;;;8.15;6.55;;;;;;;14.05;82.98;68328.84;5055781;28;20040;-88
2022/09/29 12:23:56;;;;;;;5.05;3.60;;;;;;;14.08;77.08;68332.25;5056904;28;20049;-87
2022/09/29 12:26:25;;;;;;;5.95;3.90;;;;;;;14.24;76.88;68347.78;5059290;28;20502;-87
2022/09/29 12:29:15;;;;;;;5.05;3.50;;;;;;;14.48;75.25;68374.53;5055298;28;20054;-87